sensor_id;sensor_type;location;lat;lon;timestamp;temperature;humidity
28010;DHT22;15334;49.494;8.410;2023-04-05T00:01:05;4.30;94.20
28010;DHT22;15334;49.494;8.410;2023-04-05T00:03:34;4.30;94.40
28010;DHT22;15334;49.494;8.410;2023-04-05T00:06:02;4.20;95.00
28010;DHT22;15334;49.494;8.410;2023-04-05T00:08:31;4.10;95.60
28010;DHT22;15334;49.494;8.410;2023-04-05T00:10:58;4.00;95.70
28010;DHT22;15334;49.494;8.410;2023-04-05T00:13:28;4.00;96.30
28010;DHT22;15334;49.494;8.410;2023-04-05T00:15:57;3.90;96.30
28010;DHT22;15334;49.494;8.410;2023-04-05T00:18:27;3.90;96.30
28010;DHT22;15334;49.494;8.410;2023-04-05T00:20:59;3.90;96.20
28010;DHT22;15334;49.494;8.410;2023-04-05T00:23:27;3.90;96.70
28010;DHT22;15334;49.494;8.410;2023-04-05T00:26:03;3.80;95.90
28010;DHT22;15334;49.494;8.410;2023-04-05T00:28:33;3.80;95.20
28010;DHT22;15334;49.494;8.410;2023-04-05T00:31:02;3.80;95.80
28010;DHT22;15334;49.494;8.410;2023-04-05T00:33:30;3.80;96.30
28010;DHT22;15334;49.494;8.410;2023-04-05T00:36:07;3.70;96.00
28010;DHT22;15334;49.494;8.410;2023-04-05T00:38:36;3.70;96.90
28010;DHT22;15334;49.494;8.410;2023-04-05T00:41:04;3.60;96.80
28010;DHT22;15334;49.494;8.410;2023-04-05T00:43:33;3.60;97.70
28010;DHT22;15334;49.494;8.410;2023-04-05T00:46:01;3.50;97.70
28010;DHT22;15334;49.494;8.410;2023-04-05T00:48:31;3.50;98.20
28010;DHT22;15334;49.494;8.410;2023-04-05T00:50:59;3.50;98.40
28010;DHT22;15334;49.494;8.410;2023-04-05T00:53:27;3.50;99.30
28010;DHT22;15334;49.494;8.410;2023-04-05T00:55:56;3.40;99.90
28010;DHT22;15334;49.494;8.410;2023-04-05T00:58:24;3.40;99.90
28010;DHT22;15334;49.494;8.410;2023-04-05T01:01:01;3.40;99.90
28010;DHT22;15334;49.494;8.410;2023-04-05T01:03:31;3.30;99.90
28010;DHT22;15334;49.494;8.410;2023-04-05T01:06:08;3.20;99.90
28010;DHT22;15334;49.494;8.410;2023-04-05T01:08:48;3.10;99.90
28010;DHT22;15334;49.494;8.410;2023-04-05T01:11:18;3.00;99.90
28010;DHT22;15334;49.494;8.410;2023-04-05T01:13:48;2.90;99.90
28010;DHT22;15334;49.494;8.410;2023-04-05T01:16:17;2.80;99.90
28010;DHT22;15334;49.494;8.410;2023-04-05T01:18:45;2.80;99.90
28010;DHT22;15334;49.494;8.410;2023-04-05T01:24:33;2.80;99.90
28010;DHT22;15334;49.494;8.410;2023-04-05T01:27:15;2.70;99.90
28010;DHT22;15334;49.494;8.410;2023-04-05T01:29:55;2.70;99.90
28010;DHT22;15334;49.494;8.410;2023-04-05T01:32:54;2.70;99.90
28010;DHT22;15334;49.494;8.410;2023-04-05T01:35:28;2.70;99.90
28010;DHT22;15334;49.494;8.410;2023-04-05T01:37:59;2.70;99.90
28010;DHT22;15334;49.494;8.410;2023-04-05T01:40:29;2.70;99.90
28010;DHT22;15334;49.494;8.410;2023-04-05T01:43:00;2.60;99.90
28010;DHT22;15334;49.494;8.410;2023-04-05T01:45:30;2.60;99.90
28010;DHT22;15334;49.494;8.410;2023-04-05T01:47:58;2.50;99.90
28010;DHT22;15334;49.494;8.410;2023-04-05T01:50:26;2.50;99.90
28010;DHT22;15334;49.494;8.410;2023-04-05T01:52:54;2.40;99.90
28010;DHT22;15334;49.494;8.410;2023-04-05T01:55:22;2.30;99.90
28010;DHT22;15334;49.494;8.410;2023-04-05T01:57:51;2.30;99.90
28010;DHT22;15334;49.494;8.410;2023-04-05T02:00:19;2.30;99.90
28010;DHT22;15334;49.494;8.410;2023-04-05T02:02:48;2.20;99.90
28010;DHT22;15334;49.494;8.410;2023-04-05T02:05:17;2.20;99.90
28010;DHT22;15334;49.494;8.410;2023-04-05T02:07:45;2.20;99.90
28010;DHT22;15334;49.494;8.410;2023-04-05T02:10:13;2.20;99.90
28010;DHT22;15334;49.494;8.410;2023-04-05T02:12:41;2.20;99.90
28010;DHT22;15334;49.494;8.410;2023-04-05T02:15:10;2.20;99.90
28010;DHT22;15334;49.494;8.410;2023-04-05T02:17:38;2.10;99.90
28010;DHT22;15334;49.494;8.410;2023-04-05T02:20:13;2.10;99.90
28010;DHT22;15334;49.494;8.410;2023-04-05T02:22:41;2.00;99.90
28010;DHT22;15334;49.494;8.410;2023-04-05T02:25:11;2.00;99.90
28010;DHT22;15334;49.494;8.410;2023-04-05T02:27:39;2.00;99.90
28010;DHT22;15334;49.494;8.410;2023-04-05T02:30:08;2.00;99.90
28010;DHT22;15334;49.494;8.410;2023-04-05T02:32:36;1.90;99.90
28010;DHT22;15334;49.494;8.410;2023-04-05T02:35:05;1.90;99.90
28010;DHT22;15334;49.494;8.410;2023-04-05T02:37:34;1.90;99.90
28010;DHT22;15334;49.494;8.410;2023-04-05T02:40:05;2.00;99.90
28010;DHT22;15334;49.494;8.410;2023-04-05T02:42:35;2.00;99.90
28010;DHT22;15334;49.494;8.410;2023-04-05T02:45:03;2.10;99.90
28010;DHT22;15334;49.494;8.410;2023-04-05T02:47:31;2.00;99.90
28010;DHT22;15334;49.494;8.410;2023-04-05T02:50:00;2.00;99.90
28010;DHT22;15334;49.494;8.410;2023-04-05T02:52:27;2.00;99.90
28010;DHT22;15334;49.494;8.410;2023-04-05T02:54:59;2.00;99.90
28010;DHT22;15334;49.494;8.410;2023-04-05T02:57:27;2.00;99.90
28010;DHT22;15334;49.494;8.410;2023-04-05T02:59:55;1.90;99.90
28010;DHT22;15334;49.494;8.410;2023-04-05T03:02:23;1.90;99.90
28010;DHT22;15334;49.494;8.410;2023-04-05T03:04:51;1.80;99.90
28010;DHT22;15334;49.494;8.410;2023-04-05T03:07:19;1.80;99.90
28010;DHT22;15334;49.494;8.410;2023-04-05T03:09:47;1.70;99.90
28010;DHT22;15334;49.494;8.410;2023-04-05T03:12:18;1.70;99.90
28010;DHT22;15334;49.494;8.410;2023-04-05T03:14:46;1.70;99.90
28010;DHT22;15334;49.494;8.410;2023-04-05T03:17:14;1.60;99.90
28010;DHT22;15334;49.494;8.410;2023-04-05T03:19:42;1.70;99.90
28010;DHT22;15334;49.494;8.410;2023-04-05T03:22:11;1.60;99.90
28010;DHT22;15334;49.494;8.410;2023-04-05T03:24:39;1.60;99.90
28010;DHT22;15334;49.494;8.410;2023-04-05T03:27:08;1.60;99.90
28010;DHT22;15334;49.494;8.410;2023-04-05T03:29:38;1.50;99.90
28010;DHT22;15334;49.494;8.410;2023-04-05T03:32:06;1.50;99.90
28010;DHT22;15334;49.494;8.410;2023-04-05T03:34:37;1.50;99.90
28010;DHT22;15334;49.494;8.410;2023-04-05T03:37:05;1.50;99.90
28010;DHT22;15334;49.494;8.410;2023-04-05T03:39:33;1.50;99.90
28010;DHT22;15334;49.494;8.410;2023-04-05T03:42:02;1.50;99.90
28010;DHT22;15334;49.494;8.410;2023-04-05T03:44:30;1.50;99.90
28010;DHT22;15334;49.494;8.410;2023-04-05T03:46:59;1.50;99.90
28010;DHT22;15334;49.494;8.410;2023-04-05T03:49:27;1.50;99.90
28010;DHT22;15334;49.494;8.410;2023-04-05T03:51:55;1.50;99.90
28010;DHT22;15334;49.494;8.410;2023-04-05T03:54:23;1.50;99.90
28010;DHT22;15334;49.494;8.410;2023-04-05T03:56:51;1.50;99.90
28010;DHT22;15334;49.494;8.410;2023-04-05T03:59:19;1.40;99.90
28010;DHT22;15334;49.494;8.410;2023-04-05T04:01:47;1.40;99.90
28010;DHT22;15334;49.494;8.410;2023-04-05T04:04:16;1.40;99.90
28010;DHT22;15334;49.494;8.410;2023-04-05T04:06:44;1.40;99.90
28010;DHT22;15334;49.494;8.410;2023-04-05T04:09:12;1.40;99.90
28010;DHT22;15334;49.494;8.410;2023-04-05T04:11:40;1.40;99.90
28010;DHT22;15334;49.494;8.410;2023-04-05T04:14:08;1.40;99.90
28010;DHT22;15334;49.494;8.410;2023-04-05T04:16:36;1.40;99.90
28010;DHT22;15334;49.494;8.410;2023-04-05T04:19:04;1.30;99.90
28010;DHT22;15334;49.494;8.410;2023-04-05T04:21:33;1.30;99.90
28010;DHT22;15334;49.494;8.410;2023-04-05T04:24:01;1.30;99.90
28010;DHT22;15334;49.494;8.410;2023-04-05T04:26:29;1.20;99.90
28010;DHT22;15334;49.494;8.410;2023-04-05T04:29:03;1.20;99.90
28010;DHT22;15334;49.494;8.410;2023-04-05T04:31:32;1.20;99.90
28010;DHT22;15334;49.494;8.410;2023-04-05T04:34:00;1.20;99.90
28010;DHT22;15334;49.494;8.410;2023-04-05T04:36:28;1.10;99.90
28010;DHT22;15334;49.494;8.410;2023-04-05T04:39:06;1.10;99.90
28010;DHT22;15334;49.494;8.410;2023-04-05T04:41:34;1.10;99.90
28010;DHT22;15334;49.494;8.410;2023-04-05T04:44:02;1.10;99.90
28010;DHT22;15334;49.494;8.410;2023-04-05T04:46:33;1.10;99.90
28010;DHT22;15334;49.494;8.410;2023-04-05T04:49:09;1.10;99.90
28010;DHT22;15334;49.494;8.410;2023-04-05T04:51:37;1.10;99.90
28010;DHT22;15334;49.494;8.410;2023-04-05T04:54:06;1.00;99.90
28010;DHT22;15334;49.494;8.410;2023-04-05T04:56:34;1.00;99.90
28010;DHT22;15334;49.494;8.410;2023-04-05T04:59:02;1.00;99.90
28010;DHT22;15334;49.494;8.410;2023-04-05T05:01:30;1.00;99.90
28010;DHT22;15334;49.494;8.410;2023-04-05T05:03:59;1.00;99.90
28010;DHT22;15334;49.494;8.410;2023-04-05T05:06:29;0.90;99.90
28010;DHT22;15334;49.494;8.410;2023-04-05T05:08:57;0.90;99.90
28010;DHT22;15334;49.494;8.410;2023-04-05T05:11:26;0.80;99.90
28010;DHT22;15334;49.494;8.410;2023-04-05T05:13:54;0.80;99.90
28010;DHT22;15334;49.494;8.410;2023-04-05T05:16:22;0.90;99.90
28010;DHT22;15334;49.494;8.410;2023-04-05T05:18:51;0.90;99.90
28010;DHT22;15334;49.494;8.410;2023-04-05T05:21:19;0.90;99.90
28010;DHT22;15334;49.494;8.410;2023-04-05T05:23:47;0.90;99.90
28010;DHT22;15334;49.494;8.410;2023-04-05T05:26:15;0.90;99.90
28010;DHT22;15334;49.494;8.410;2023-04-05T05:28:44;0.90;99.90
28010;DHT22;15334;49.494;8.410;2023-04-05T05:31:14;0.90;99.90
28010;DHT22;15334;49.494;8.410;2023-04-05T05:33:43;0.90;99.90
28010;DHT22;15334;49.494;8.410;2023-04-05T05:36:15;0.90;99.90
28010;DHT22;15334;49.494;8.410;2023-04-05T05:38:45;0.90;99.90
28010;DHT22;15334;49.494;8.410;2023-04-05T05:41:13;1.00;99.90
28010;DHT22;15334;49.494;8.410;2023-04-05T05:43:41;1.00;99.90
28010;DHT22;15334;49.494;8.410;2023-04-05T05:46:10;1.00;99.90
28010;DHT22;15334;49.494;8.410;2023-04-05T05:48:39;1.10;99.90
28010;DHT22;15334;49.494;8.410;2023-04-05T05:51:07;1.10;99.90
28010;DHT22;15334;49.494;8.410;2023-04-05T05:53:36;1.10;99.90
28010;DHT22;15334;49.494;8.410;2023-04-05T05:56:05;1.20;99.90
28010;DHT22;15334;49.494;8.410;2023-04-05T05:58:33;1.30;99.90
28010;DHT22;15334;49.494;8.410;2023-04-05T06:01:01;1.40;99.90
28010;DHT22;15334;49.494;8.410;2023-04-05T06:03:30;1.50;99.90
28010;DHT22;15334;49.494;8.410;2023-04-05T06:05:59;1.50;99.90
28010;DHT22;15334;49.494;8.410;2023-04-05T06:08:28;1.50;99.90
28010;DHT22;15334;49.494;8.410;2023-04-05T06:10:56;1.60;99.90
28010;DHT22;15334;49.494;8.410;2023-04-05T06:13:24;1.60;99.90
28010;DHT22;15334;49.494;8.410;2023-04-05T06:15:52;1.70;99.90
28010;DHT22;15334;49.494;8.410;2023-04-05T06:18:20;1.70;99.90
28010;DHT22;15334;49.494;8.410;2023-04-05T06:20:49;1.70;99.90
28010;DHT22;15334;49.494;8.410;2023-04-05T06:23:17;1.70;99.90
28010;DHT22;15334;49.494;8.410;2023-04-05T06:25:45;1.70;99.90
28010;DHT22;15334;49.494;8.410;2023-04-05T06:28:13;1.70;99.90
28010;DHT22;15334;49.494;8.410;2023-04-05T06:30:41;1.80;99.90
28010;DHT22;15334;49.494;8.410;2023-04-05T06:33:10;1.90;99.90
28010;DHT22;15334;49.494;8.410;2023-04-05T06:35:38;2.00;99.90
28010;DHT22;15334;49.494;8.410;2023-04-05T06:38:08;2.10;99.90
28010;DHT22;15334;49.494;8.410;2023-04-05T06:40:36;2.10;99.90
28010;DHT22;15334;49.494;8.410;2023-04-05T06:43:04;2.20;99.90
28010;DHT22;15334;49.494;8.410;2023-04-05T06:45:33;2.30;99.90
28010;DHT22;15334;49.494;8.410;2023-04-05T06:48:01;2.40;99.90
28010;DHT22;15334;49.494;8.410;2023-04-05T06:50:29;2.50;99.90
28010;DHT22;15334;49.494;8.410;2023-04-05T06:52:57;2.50;99.90
28010;DHT22;15334;49.494;8.410;2023-04-05T06:55:26;2.60;99.90
28010;DHT22;15334;49.494;8.410;2023-04-05T06:57:55;2.60;99.90
28010;DHT22;15334;49.494;8.410;2023-04-05T07:00:23;2.70;99.90
28010;DHT22;15334;49.494;8.410;2023-04-05T07:02:51;2.90;99.90
28010;DHT22;15334;49.494;8.410;2023-04-05T07:05:19;3.00;99.90
28010;DHT22;15334;49.494;8.410;2023-04-05T07:07:47;3.10;99.90
28010;DHT22;15334;49.494;8.410;2023-04-05T07:10:15;3.20;99.90
28010;DHT22;15334;49.494;8.410;2023-04-05T07:12:44;3.30;99.90
28010;DHT22;15334;49.494;8.410;2023-04-05T07:15:12;3.40;99.90
28010;DHT22;15334;49.494;8.410;2023-04-05T07:17:40;3.50;99.90
28010;DHT22;15334;49.494;8.410;2023-04-05T07:20:10;3.60;99.90
28010;DHT22;15334;49.494;8.410;2023-04-05T07:22:38;3.60;99.90
28010;DHT22;15334;49.494;8.410;2023-04-05T07:25:07;3.80;99.90
28010;DHT22;15334;49.494;8.410;2023-04-05T07:27:35;3.90;99.90
28010;DHT22;15334;49.494;8.410;2023-04-05T07:30:06;4.00;99.90
28010;DHT22;15334;49.494;8.410;2023-04-05T07:32:34;4.10;99.90
28010;DHT22;15334;49.494;8.410;2023-04-05T07:35:02;4.20;99.90
28010;DHT22;15334;49.494;8.410;2023-04-05T07:37:30;4.30;99.90
28010;DHT22;15334;49.494;8.410;2023-04-05T07:39:58;4.40;99.90
28010;DHT22;15334;49.494;8.410;2023-04-05T07:42:26;4.60;99.90
28010;DHT22;15334;49.494;8.410;2023-04-05T07:44:54;4.50;99.90
28010;DHT22;15334;49.494;8.410;2023-04-05T07:47:24;4.60;99.90
28010;DHT22;15334;49.494;8.410;2023-04-05T07:49:53;4.80;99.90
28010;DHT22;15334;49.494;8.410;2023-04-05T07:52:21;4.90;99.90
28010;DHT22;15334;49.494;8.410;2023-04-05T07:54:49;5.00;99.90
28010;DHT22;15334;49.494;8.410;2023-04-05T07:57:18;5.10;99.90
28010;DHT22;15334;49.494;8.410;2023-04-05T07:59:47;5.20;99.90
28010;DHT22;15334;49.494;8.410;2023-04-05T08:02:16;5.30;99.90
28010;DHT22;15334;49.494;8.410;2023-04-05T08:04:46;5.40;99.90
28010;DHT22;15334;49.494;8.410;2023-04-05T08:07:14;5.50;99.90
28010;DHT22;15334;49.494;8.410;2023-04-05T08:09:42;5.70;99.90
28010;DHT22;15334;49.494;8.410;2023-04-05T08:12:10;5.70;99.90
28010;DHT22;15334;49.494;8.410;2023-04-05T08:14:38;5.90;99.90
28010;DHT22;15334;49.494;8.410;2023-04-05T08:17:06;5.90;99.90
28010;DHT22;15334;49.494;8.410;2023-04-05T08:19:34;5.90;99.90
28010;DHT22;15334;49.494;8.410;2023-04-05T08:22:03;5.90;99.90
28010;DHT22;15334;49.494;8.410;2023-04-05T08:24:31;5.90;99.90
28010;DHT22;15334;49.494;8.410;2023-04-05T08:27:00;5.90;99.90
28010;DHT22;15334;49.494;8.410;2023-04-05T08:29:28;6.00;99.90
28010;DHT22;15334;49.494;8.410;2023-04-05T08:31:55;6.00;99.90
28010;DHT22;15334;49.494;8.410;2023-04-05T08:34:24;6.10;99.90
28010;DHT22;15334;49.494;8.410;2023-04-05T08:36:52;6.00;99.90
28010;DHT22;15334;49.494;8.410;2023-04-05T08:39:21;6.10;99.90
28010;DHT22;15334;49.494;8.410;2023-04-05T08:41:54;6.30;99.90
28010;DHT22;15334;49.494;8.410;2023-04-05T08:44:28;6.30;99.90
28010;DHT22;15334;49.494;8.410;2023-04-05T08:46:58;6.40;99.90
28010;DHT22;15334;49.494;8.410;2023-04-05T08:49:27;6.60;99.90
28010;DHT22;15334;49.494;8.410;2023-04-05T08:51:55;6.80;99.90
28010;DHT22;15334;49.494;8.410;2023-04-05T08:54:26;6.90;99.90
28010;DHT22;15334;49.494;8.410;2023-04-05T08:56:56;6.90;99.90
28010;DHT22;15334;49.494;8.410;2023-04-05T08:59:25;6.90;99.90
28010;DHT22;15334;49.494;8.410;2023-04-05T09:01:55;7.00;99.90
28010;DHT22;15334;49.494;8.410;2023-04-05T09:04:29;7.20;99.90
28010;DHT22;15334;49.494;8.410;2023-04-05T09:07:00;7.20;99.90
28010;DHT22;15334;49.494;8.410;2023-04-05T09:09:31;7.30;99.90
28010;DHT22;15334;49.494;8.410;2023-04-05T09:12:02;7.50;99.90
28010;DHT22;15334;49.494;8.410;2023-04-05T09:14:32;7.70;99.60
28010;DHT22;15334;49.494;8.410;2023-04-05T09:17:01;7.90;99.00
28010;DHT22;15334;49.494;8.410;2023-04-05T09:19:30;7.90;97.50
28010;DHT22;15334;49.494;8.410;2023-04-05T09:21:59;7.80;97.30
28010;DHT22;15334;49.494;8.410;2023-04-05T09:24:33;7.80;97.10
28010;DHT22;15334;49.494;8.410;2023-04-05T09:27:06;7.90;96.40
28010;DHT22;15334;49.494;8.410;2023-04-05T09:29:35;8.00;92.30
28010;DHT22;15334;49.494;8.410;2023-04-05T09:32:04;7.90;91.50
28010;DHT22;15334;49.494;8.410;2023-04-05T09:34:33;7.90;91.60
28010;DHT22;15334;49.494;8.410;2023-04-05T09:37:03;8.10;91.50
28010;DHT22;15334;49.494;8.410;2023-04-05T09:39:40;8.20;91.50
28010;DHT22;15334;49.494;8.410;2023-04-05T09:42:10;8.40;91.10
28010;DHT22;15334;49.494;8.410;2023-04-05T09:44:49;8.50;90.30
28010;DHT22;15334;49.494;8.410;2023-04-05T09:47:19;8.60;91.60
28010;DHT22;15334;49.494;8.410;2023-04-05T09:49:47;8.80;90.60
28010;DHT22;15334;49.494;8.410;2023-04-05T09:52:19;8.70;91.00
28010;DHT22;15334;49.494;8.410;2023-04-05T09:54:51;8.50;91.10
28010;DHT22;15334;49.494;8.410;2023-04-05T09:57:20;8.50;91.40
28010;DHT22;15334;49.494;8.410;2023-04-05T09:59:49;8.60;91.00
28010;DHT22;15334;49.494;8.410;2023-04-05T10:02:17;8.70;90.80
28010;DHT22;15334;49.494;8.410;2023-04-05T10:04:46;8.80;91.30
28010;DHT22;15334;49.494;8.410;2023-04-05T10:07:16;8.90;90.30
28010;DHT22;15334;49.494;8.410;2023-04-05T10:09:45;8.70;91.10
28010;DHT22;15334;49.494;8.410;2023-04-05T10:12:24;8.70;88.80
28010;DHT22;15334;49.494;8.410;2023-04-05T10:14:54;8.70;89.00
28010;DHT22;15334;49.494;8.410;2023-04-05T10:17:25;8.70;89.60
28010;DHT22;15334;49.494;8.410;2023-04-05T10:20:04;8.90;89.20
28010;DHT22;15334;49.494;8.410;2023-04-05T10:22:40;8.90;88.10
28010;DHT22;15334;49.494;8.410;2023-04-05T10:25:15;9.00;87.90
28010;DHT22;15334;49.494;8.410;2023-04-05T10:27:53;9.00;88.50
28010;DHT22;15334;49.494;8.410;2023-04-05T10:30:23;9.00;86.10
28010;DHT22;15334;49.494;8.410;2023-04-05T10:33:00;9.20;86.30
28010;DHT22;15334;49.494;8.410;2023-04-05T10:35:34;9.40;86.00
28010;DHT22;15334;49.494;8.410;2023-04-05T10:38:11;9.50;85.60
28010;DHT22;15334;49.494;8.410;2023-04-05T10:40:46;9.50;87.70
28010;DHT22;15334;49.494;8.410;2023-04-05T10:43:20;9.70;86.20
28010;DHT22;15334;49.494;8.410;2023-04-05T10:45:51;9.80;87.70
28010;DHT22;15334;49.494;8.410;2023-04-05T10:48:31;10.00;82.30
28010;DHT22;15334;49.494;8.410;2023-04-05T10:51:00;10.10;83.30
28010;DHT22;15334;49.494;8.410;2023-04-05T10:53:30;10.30;82.50
28010;DHT22;15334;49.494;8.410;2023-04-05T10:56:00;10.40;79.10
28010;DHT22;15334;49.494;8.410;2023-04-05T10:58:30;10.40;78.40
28010;DHT22;15334;49.494;8.410;2023-04-05T11:00:59;10.30;77.90
28010;DHT22;15334;49.494;8.410;2023-04-05T11:03:41;10.40;76.10
28010;DHT22;15334;49.494;8.410;2023-04-05T11:06:21;10.30;76.30
28010;DHT22;15334;49.494;8.410;2023-04-05T11:08:52;10.40;77.50
28010;DHT22;15334;49.494;8.410;2023-04-05T11:11:21;10.40;76.80
28010;DHT22;15334;49.494;8.410;2023-04-05T11:13:53;10.90;76.40
28010;DHT22;15334;49.494;8.410;2023-04-05T11:16:22;12.10;74.00
28010;DHT22;15334;49.494;8.410;2023-04-05T11:18:51;13.60;71.20
28010;DHT22;15334;49.494;8.410;2023-04-05T11:21:21;15.30;67.90
28010;DHT22;15334;49.494;8.410;2023-04-05T11:24:01;16.70;60.40
28010;DHT22;15334;49.494;8.410;2023-04-05T11:26:31;17.90;57.60
28010;DHT22;15334;49.494;8.410;2023-04-05T11:29:00;18.10;56.10
28010;DHT22;15334;49.494;8.410;2023-04-05T11:31:28;19.00;52.90
28010;DHT22;15334;49.494;8.410;2023-04-05T11:33:57;19.90;50.30
28010;DHT22;15334;49.494;8.410;2023-04-05T11:36:36;20.80;48.90
28010;DHT22;15334;49.494;8.410;2023-04-05T11:39:26;21.50;50.30
28010;DHT22;15334;49.494;8.410;2023-04-05T11:42:02;21.90;47.40
28010;DHT22;15334;49.494;8.410;2023-04-05T11:44:41;23.10;45.10
28010;DHT22;15334;49.494;8.410;2023-04-05T11:47:09;24.30;43.30
28010;DHT22;15334;49.494;8.410;2023-04-05T11:49:38;25.30;41.70
28010;DHT22;15334;49.494;8.410;2023-04-05T11:52:15;26.30;41.30
28010;DHT22;15334;49.494;8.410;2023-04-05T11:54:44;26.90;41.20
28010;DHT22;15334;49.494;8.410;2023-04-05T11:57:18;27.00;40.30
28010;DHT22;15334;49.494;8.410;2023-04-05T11:59:49;26.90;38.90
28010;DHT22;15334;49.494;8.410;2023-04-05T12:02:18;27.40;38.10
28010;DHT22;15334;49.494;8.410;2023-04-05T12:04:53;27.50;38.30
28010;DHT22;15334;49.494;8.410;2023-04-05T12:07:24;28.00;38.30
28010;DHT22;15334;49.494;8.410;2023-04-05T12:10:04;28.00;37.60
28010;DHT22;15334;49.494;8.410;2023-04-05T12:12:35;27.30;38.00
28010;DHT22;15334;49.494;8.410;2023-04-05T12:15:07;26.60;38.50
28010;DHT22;15334;49.494;8.410;2023-04-05T12:17:44;26.30;38.10
28010;DHT22;15334;49.494;8.410;2023-04-05T12:20:14;25.40;37.90
28010;DHT22;15334;49.494;8.410;2023-04-05T12:22:44;24.80;40.40
28010;DHT22;15334;49.494;8.410;2023-04-05T12:25:14;24.80;39.40
28010;DHT22;15334;49.494;8.410;2023-04-05T12:27:43;24.80;40.00
28010;DHT22;15334;49.494;8.410;2023-04-05T12:30:14;24.70;39.20
28010;DHT22;15334;49.494;8.410;2023-04-05T12:32:44;24.90;39.50
28010;DHT22;15334;49.494;8.410;2023-04-05T12:35:15;24.70;39.10
28010;DHT22;15334;49.494;8.410;2023-04-05T12:37:44;22.80;40.90
28010;DHT22;15334;49.494;8.410;2023-04-05T12:40:12;21.70;42.00
28010;DHT22;15334;49.494;8.410;2023-04-05T12:42:40;22.00;42.40
28010;DHT22;15334;49.494;8.410;2023-04-05T12:45:10;22.40;42.10
28010;DHT22;15334;49.494;8.410;2023-04-05T12:47:51;22.60;41.50
28010;DHT22;15334;49.494;8.410;2023-04-05T12:50:25;22.90;40.90
28010;DHT22;15334;49.494;8.410;2023-04-05T12:52:57;22.90;41.30
28010;DHT22;15334;49.494;8.410;2023-04-05T12:55:27;23.40;40.60
28010;DHT22;15334;49.494;8.410;2023-04-05T12:57:58;23.30;40.80
28010;DHT22;15334;49.494;8.410;2023-04-05T13:00:28;22.70;41.60
28010;DHT22;15334;49.494;8.410;2023-04-05T13:02:58;22.50;40.90
28010;DHT22;15334;49.494;8.410;2023-04-05T13:05:28;21.90;42.20
28010;DHT22;15334;49.494;8.410;2023-04-05T13:07:56;21.20;42.70
28010;DHT22;15334;49.494;8.410;2023-04-05T13:10:25;21.80;42.00
28010;DHT22;15334;49.494;8.410;2023-04-05T13:12:53;21.10;43.10
28010;DHT22;15334;49.494;8.410;2023-04-05T13:15:21;20.60;43.60
28010;DHT22;15334;49.494;8.410;2023-04-05T13:17:49;21.10;42.70
28010;DHT22;15334;49.494;8.410;2023-04-05T13:20:20;20.80;42.70
28010;DHT22;15334;49.494;8.410;2023-04-05T13:22:49;21.20;42.90
28010;DHT22;15334;49.494;8.410;2023-04-05T13:25:17;22.00;41.70
28010;DHT22;15334;49.494;8.410;2023-04-05T13:27:45;22.90;41.00
28010;DHT22;15334;49.494;8.410;2023-04-05T13:30:13;22.70;41.10
28010;DHT22;15334;49.494;8.410;2023-04-05T13:32:42;22.30;41.70
28010;DHT22;15334;49.494;8.410;2023-04-05T13:35:10;21.70;42.50
28010;DHT22;15334;49.494;8.410;2023-04-05T13:37:40;21.60;42.00
28010;DHT22;15334;49.494;8.410;2023-04-05T13:40:08;20.90;43.10
28010;DHT22;15334;49.494;8.410;2023-04-05T13:42:37;19.10;45.00
28010;DHT22;15334;49.494;8.410;2023-04-05T13:45:06;17.90;46.30
28010;DHT22;15334;49.494;8.410;2023-04-05T13:47:34;16.60;47.90
28010;DHT22;15334;49.494;8.410;2023-04-05T13:50:02;16.00;48.60
28010;DHT22;15334;49.494;8.410;2023-04-05T13:52:30;15.20;49.80
28010;DHT22;15334;49.494;8.410;2023-04-05T13:55:06;14.40;50.60
28010;DHT22;15334;49.494;8.410;2023-04-05T13:57:45;13.60;51.20
28010;DHT22;15334;49.494;8.410;2023-04-05T14:00:14;12.90;53.50
28010;DHT22;15334;49.494;8.410;2023-04-05T14:02:50;12.70;54.00
28010;DHT22;15334;49.494;8.410;2023-04-05T14:05:28;12.30;54.30
28010;DHT22;15334;49.494;8.410;2023-04-05T14:08:00;12.20;54.40
28010;DHT22;15334;49.494;8.410;2023-04-05T14:10:32;12.00;54.80
28010;DHT22;15334;49.494;8.410;2023-04-05T14:13:06;11.80;54.80
28010;DHT22;15334;49.494;8.410;2023-04-05T14:15:36;11.60;54.60
28010;DHT22;15334;49.494;8.410;2023-04-05T14:18:06;11.70;54.80
28010;DHT22;15334;49.494;8.410;2023-04-05T14:20:41;11.70;55.50
28010;DHT22;15334;49.494;8.410;2023-04-05T14:23:10;11.80;54.70
28010;DHT22;15334;49.494;8.410;2023-04-05T14:25:40;11.60;55.20
28010;DHT22;15334;49.494;8.410;2023-04-05T14:28:16;11.40;55.70
28010;DHT22;15334;49.494;8.410;2023-04-05T14:30:49;11.50;55.60
28010;DHT22;15334;49.494;8.410;2023-04-05T14:33:24;11.60;56.00
28010;DHT22;15334;49.494;8.410;2023-04-05T14:35:56;11.50;55.80
28010;DHT22;15334;49.494;8.410;2023-04-05T14:38:34;11.20;57.20
28010;DHT22;15334;49.494;8.410;2023-04-05T14:41:08;11.00;56.70
28010;DHT22;15334;49.494;8.410;2023-04-05T14:43:40;11.10;57.60
28010;DHT22;15334;49.494;8.410;2023-04-05T14:46:16;11.30;57.40
28010;DHT22;15334;49.494;8.410;2023-04-05T14:48:48;11.30;56.90
28010;DHT22;15334;49.494;8.410;2023-04-05T14:51:18;11.20;56.50
28010;DHT22;15334;49.494;8.410;2023-04-05T14:53:58;11.00;56.10
28010;DHT22;15334;49.494;8.410;2023-04-05T14:56:38;11.00;56.10
28010;DHT22;15334;49.494;8.410;2023-04-05T14:59:15;11.10;56.50
28010;DHT22;15334;49.494;8.410;2023-04-05T15:01:52;11.20;56.70
28010;DHT22;15334;49.494;8.410;2023-04-05T15:04:23;11.30;55.30
28010;DHT22;15334;49.494;8.410;2023-04-05T15:06:54;11.30;55.40
28010;DHT22;15334;49.494;8.410;2023-04-05T15:09:28;11.10;57.00
28010;DHT22;15334;49.494;8.410;2023-04-05T15:12:04;11.10;56.40
28010;DHT22;15334;49.494;8.410;2023-04-05T15:17:35;10.90;56.30
28010;DHT22;15334;49.494;8.410;2023-04-05T15:20:10;10.80;57.10
28010;DHT22;15334;49.494;8.410;2023-04-05T15:22:41;10.90;57.20
28010;DHT22;15334;49.494;8.410;2023-04-05T15:25:12;11.10;56.10
28010;DHT22;15334;49.494;8.410;2023-04-05T15:27:45;11.20;55.30
28010;DHT22;15334;49.494;8.410;2023-04-05T15:30:17;10.80;55.20
28010;DHT22;15334;49.494;8.410;2023-04-05T15:32:57;10.70;55.60
28010;DHT22;15334;49.494;8.410;2023-04-05T15:35:34;10.60;55.80
28010;DHT22;15334;49.494;8.410;2023-04-05T15:38:08;10.60;54.90
28010;DHT22;15334;49.494;8.410;2023-04-05T15:40:37;10.60;54.70
28010;DHT22;15334;49.494;8.410;2023-04-05T15:43:10;10.60;54.80
28010;DHT22;15334;49.494;8.410;2023-04-05T15:45:39;10.60;54.90
28010;DHT22;15334;49.494;8.410;2023-04-05T15:48:18;10.60;55.00
28010;DHT22;15334;49.494;8.410;2023-04-05T15:50:48;10.60;55.20
28010;DHT22;15334;49.494;8.410;2023-04-05T15:53:26;10.70;54.80
28010;DHT22;15334;49.494;8.410;2023-04-05T15:56:05;10.70;54.30
28010;DHT22;15334;49.494;8.410;2023-04-05T15:58:36;10.80;53.70
28010;DHT22;15334;49.494;8.410;2023-04-05T16:01:10;10.90;53.90
28010;DHT22;15334;49.494;8.410;2023-04-05T16:03:48;10.90;54.00
28010;DHT22;15334;49.494;8.410;2023-04-05T16:06:24;10.70;53.30